sensor_id;sensor_type;location;lat;lon;timestamp;pressure;altitude;pressure_sealevel;temperature;humidity
967;BME280;56108;48.730;9.304;2023-12-07T00:01:42;97844.56;;;1.55;100.00
967;BME280;56108;48.730;9.304;2023-12-07T00:03:51;97850.41;;;1.65;100.00
967;BME280;56108;48.730;9.304;2023-12-07T00:05:59;97856.53;;;1.66;100.00
967;BME280;56108;48.730;9.304;2023-12-07T00:08:09;97856.88;;;1.53;100.00
967;BME280;56108;48.730;9.304;2023-12-07T00:10:17;97854.78;;;1.35;100.00
967;BME280;56108;48.730;9.304;2023-12-07T00:12:28;97858.56;;;1.26;100.00
967;BME280;56108;48.730;9.304;2023-12-07T00:14:36;97859.66;;;1.18;100.00
967;BME280;56108;48.730;9.304;2023-12-07T00:16:44;97849.91;;;1.23;100.00
967;BME280;56108;48.730;9.304;2023-12-07T00:18:54;97859.97;;;1.38;100.00
967;BME280;56108;48.730;9.304;2023-12-07T00:21:03;97856.94;;;1.52;100.00
967;BME280;56108;48.730;9.304;2023-12-07T00:23:12;97851.78;;;1.49;100.00
967;BME280;56108;48.730;9.304;2023-12-07T00:25:20;97863.31;;;1.43;100.00
967;BME280;56108;48.730;9.304;2023-12-07T00:27:42;97860.19;;;1.30;100.00
967;BME280;56108;48.730;9.304;2023-12-07T00:30:27;97860.34;;;1.24;100.00
967;BME280;56108;48.730;9.304;2023-12-07T00:32:36;97853.38;;;1.23;100.00
967;BME280;56108;48.730;9.304;2023-12-07T00:34:45;97853.75;;;1.41;100.00
967;BME280;56108;48.730;9.304;2023-12-07T00:36:54;97861.72;;;1.38;100.00
967;BME280;56108;48.730;9.304;2023-12-07T00:39:02;97863.91;;;1.53;100.00
967;BME280;56108;48.730;9.304;2023-12-07T00:41:11;97863.50;;;1.37;100.00
967;BME280;56108;48.730;9.304;2023-12-07T00:43:23;97865.78;;;1.48;100.00
967;BME280;56108;48.730;9.304;2023-12-07T00:45:31;97862.19;;;1.52;100.00
967;BME280;56108;48.730;9.304;2023-12-07T00:47:37;97870.38;;;1.40;100.00
967;BME280;56108;48.730;9.304;2023-12-07T00:49:45;97864.47;;;1.33;100.00
967;BME280;56108;48.730;9.304;2023-12-07T00:51:54;97861.25;;;1.23;100.00
967;BME280;56108;48.730;9.304;2023-12-07T00:54:02;97864.94;;;1.16;100.00
967;BME280;56108;48.730;9.304;2023-12-07T00:56:10;97862.53;;;1.09;100.00
967;BME280;56108;48.730;9.304;2023-12-07T00:58:18;97867.03;;;1.03;100.00
967;BME280;56108;48.730;9.304;2023-12-07T01:00:30;97858.19;;;1.08;100.00
967;BME280;56108;48.730;9.304;2023-12-07T01:02:38;97857.44;;;1.02;100.00
967;BME280;56108;48.730;9.304;2023-12-07T01:04:47;97861.72;;;1.07;100.00
967;BME280;56108;48.730;9.304;2023-12-07T01:06:55;97863.44;;;1.08;100.00
967;BME280;56108;48.730;9.304;2023-12-07T01:09:04;97866.72;;;1.14;100.00
967;BME280;56108;48.730;9.304;2023-12-07T01:11:10;97869.97;;;1.24;100.00
967;BME280;56108;48.730;9.304;2023-12-07T01:13:18;97872.03;;;1.13;100.00
967;BME280;56108;48.730;9.304;2023-12-07T01:15:29;97878.97;;;1.15;100.00
967;BME280;56108;48.730;9.304;2023-12-07T01:17:37;97879.41;;;1.31;100.00
967;BME280;56108;48.730;9.304;2023-12-07T01:19:45;97884.34;;;1.40;100.00
967;BME280;56108;48.730;9.304;2023-12-07T01:21:54;97895.56;;;1.45;100.00
967;BME280;56108;48.730;9.304;2023-12-07T01:24:02;97895.59;;;1.75;100.00
967;BME280;56108;48.730;9.304;2023-12-07T01:26:20;97898.72;;;1.58;100.00
967;BME280;56108;48.730;9.304;2023-12-07T01:28:28;97900.38;;;1.62;100.00
967;BME280;56108;48.730;9.304;2023-12-07T01:30:39;97901.56;;;1.50;100.00
967;BME280;56108;48.730;9.304;2023-12-07T01:32:47;97900.94;;;1.41;100.00
967;BME280;56108;48.730;9.304;2023-12-07T01:34:55;97892.22;;;1.40;100.00
967;BME280;56108;48.730;9.304;2023-12-07T01:37:01;97895.88;;;1.35;100.00
967;BME280;56108;48.730;9.304;2023-12-07T01:39:10;97888.97;;;1.32;100.00
967;BME280;56108;48.730;9.304;2023-12-07T01:41:19;97894.41;;;1.26;100.00
967;BME280;56108;48.730;9.304;2023-12-07T01:43:28;97888.91;;;1.34;100.00
967;BME280;56108;48.730;9.304;2023-12-07T01:45:39;97887.34;;;1.28;100.00
967;BME280;56108;48.730;9.304;2023-12-07T01:47:49;97891.91;;;1.20;100.00
967;BME280;56108;48.730;9.304;2023-12-07T01:49:59;97883.25;;;1.18;100.00
967;BME280;56108;48.730;9.304;2023-12-07T01:52:10;97890.41;;;1.11;100.00
967;BME280;56108;48.730;9.304;2023-12-07T01:54:19;97884.06;;;1.20;100.00
967;BME280;56108;48.730;9.304;2023-12-07T01:56:25;97882.25;;;1.22;100.00
967;BME280;56108;48.730;9.304;2023-12-07T01:58:34;97891.28;;;1.12;100.00
967;BME280;56108;48.730;9.304;2023-12-07T02:00:47;97885.13;;;1.13;100.00
967;BME280;56108;48.730;9.304;2023-12-07T02:02:56;97887.13;;;1.04;100.00
967;BME280;56108;48.730;9.304;2023-12-07T02:05:04;97893.53;;;0.93;100.00
967;BME280;56108;48.730;9.304;2023-12-07T02:07:14;97881.31;;;0.92;100.00
967;BME280;56108;48.730;9.304;2023-12-07T02:09:22;97891.44;;;1.06;100.00
967;BME280;56108;48.730;9.304;2023-12-07T02:11:31;97892.34;;;1.04;100.00
967;BME280;56108;48.730;9.304;2023-12-07T02:13:40;97889.75;;;1.04;100.00
967;BME280;56108;48.730;9.304;2023-12-07T02:15:52;97891.84;;;1.23;100.00
967;BME280;56108;48.730;9.304;2023-12-07T02:18:06;97892.06;;;1.15;100.00
967;BME280;56108;48.730;9.304;2023-12-07T02:20:21;97895.63;;;1.13;100.00
967;BME280;56108;48.730;9.304;2023-12-07T02:22:34;97886.94;;;1.11;100.00
967;BME280;56108;48.730;9.304;2023-12-07T02:24:48;97889.97;;;0.95;100.00
967;BME280;56108;48.730;9.304;2023-12-07T02:27:05;97883.03;;;0.94;100.00
967;BME280;56108;48.730;9.304;2023-12-07T02:29:13;97884.28;;;0.78;100.00
967;BME280;56108;48.730;9.304;2023-12-07T02:31:22;97880.00;;;0.75;100.00
967;BME280;56108;48.730;9.304;2023-12-07T02:33:31;97874.16;;;0.66;100.00
967;BME280;56108;48.730;9.304;2023-12-07T02:35:40;97874.94;;;0.68;100.00
967;BME280;56108;48.730;9.304;2023-12-07T02:37:51;97874.88;;;0.71;100.00
967;BME280;56108;48.730;9.304;2023-12-07T02:40:00;97881.88;;;0.70;100.00
967;BME280;56108;48.730;9.304;2023-12-07T02:42:09;97883.53;;;0.74;100.00
967;BME280;56108;48.730;9.304;2023-12-07T02:44:18;97878.97;;;0.47;100.00
967;BME280;56108;48.730;9.304;2023-12-07T02:46:27;97879.13;;;0.41;100.00
967;BME280;56108;48.730;9.304;2023-12-07T02:48:32;97879.47;;;0.27;100.00
967;BME280;56108;48.730;9.304;2023-12-07T02:50:41;97867.25;;;0.28;100.00
967;BME280;56108;48.730;9.304;2023-12-07T02:52:49;97866.41;;;0.27;100.00
967;BME280;56108;48.730;9.304;2023-12-07T02:55:00;97864.59;;;0.29;100.00
967;BME280;56108;48.730;9.304;2023-12-07T02:57:08;97864.84;;;0.18;100.00
967;BME280;56108;48.730;9.304;2023-12-07T02:59:17;97861.25;;;0.22;100.00
967;BME280;56108;48.730;9.304;2023-12-07T03:01:25;97858.56;;;0.25;100.00
967;BME280;56108;48.730;9.304;2023-12-07T03:03:34;97861.31;;;0.21;100.00
967;BME280;56108;48.730;9.304;2023-12-07T03:05:44;97860.72;;;0.08;100.00
967;BME280;56108;48.730;9.304;2023-12-07T03:07:52;97861.72;;;0.03;100.00
967;BME280;56108;48.730;9.304;2023-12-07T03:10:01;97864.50;;;-0.04;100.00
967;BME280;56108;48.730;9.304;2023-12-07T03:12:12;97859.72;;;-0.23;100.00
967;BME280;56108;48.730;9.304;2023-12-07T03:14:20;97855.63;;;-0.37;100.00
967;BME280;56108;48.730;9.304;2023-12-07T03:16:29;97851.28;;;-0.36;100.00
967;BME280;56108;48.730;9.304;2023-12-07T03:18:37;97843.34;;;-0.33;100.00
967;BME280;56108;48.730;9.304;2023-12-07T03:20:46;97844.97;;;-0.26;100.00
967;BME280;56108;48.730;9.304;2023-12-07T03:22:55;97834.31;;;-0.18;100.00
967;BME280;56108;48.730;9.304;2023-12-07T03:25:04;97832.59;;;-0.19;100.00
967;BME280;56108;48.730;9.304;2023-12-07T03:27:15;97828.50;;;-0.31;100.00
967;BME280;56108;48.730;9.304;2023-12-07T03:29:25;97822.72;;;-0.45;100.00
967;BME280;56108;48.730;9.304;2023-12-07T03:31:47;97821.16;;;-0.54;100.00
967;BME280;56108;48.730;9.304;2023-12-07T03:33:56;97823.16;;;-0.65;100.00
967;BME280;56108;48.730;9.304;2023-12-07T03:36:07;97817.91;;;-0.65;100.00
967;BME280;56108;48.730;9.304;2023-12-07T03:38:15;97818.53;;;-0.54;100.00
967;BME280;56108;48.730;9.304;2023-12-07T03:40:24;97815.66;;;-0.42;100.00
967;BME280;56108;48.730;9.304;2023-12-07T03:42:35;97815.94;;;-0.54;100.00
967;BME280;56108;48.730;9.304;2023-12-07T03:45:00;97815.03;;;-0.53;100.00
967;BME280;56108;48.730;9.304;2023-12-07T03:47:08;97814.31;;;-0.60;100.00
967;BME280;56108;48.730;9.304;2023-12-07T03:49:18;97814.03;;;-0.46;100.00
967;BME280;56108;48.730;9.304;2023-12-07T03:51:26;97802.84;;;-0.54;100.00
967;BME280;56108;48.730;9.304;2023-12-07T03:53:34;97810.88;;;-0.62;100.00
967;BME280;56108;48.730;9.304;2023-12-07T03:55:45;97812.88;;;-0.73;100.00
967;BME280;56108;48.730;9.304;2023-12-07T03:57:56;97812.78;;;-0.70;100.00
967;BME280;56108;48.730;9.304;2023-12-07T04:00:06;97813.78;;;-0.75;100.00
967;BME280;56108;48.730;9.304;2023-12-07T04:02:15;97811.97;;;-0.73;100.00
967;BME280;56108;48.730;9.304;2023-12-07T04:04:24;97808.28;;;-0.63;100.00
967;BME280;56108;48.730;9.304;2023-12-07T04:06:29;97810.69;;;-0.54;100.00
967;BME280;56108;48.730;9.304;2023-12-07T04:08:38;97814.25;;;-0.57;100.00
967;BME280;56108;48.730;9.304;2023-12-07T04:10:46;97816.63;;;-0.46;100.00
967;BME280;56108;48.730;9.304;2023-12-07T04:12:58;97817.50;;;-0.45;100.00
967;BME280;56108;48.730;9.304;2023-12-07T04:15:07;97822.91;;;-0.55;100.00
967;BME280;56108;48.730;9.304;2023-12-07T04:17:16;97813.19;;;-0.48;100.00
967;BME280;56108;48.730;9.304;2023-12-07T04:19:24;97812.41;;;-0.51;100.00
967;BME280;56108;48.730;9.304;2023-12-07T04:21:33;97824.91;;;-0.66;100.00
967;BME280;56108;48.730;9.304;2023-12-07T04:23:41;97824.94;;;-0.69;100.00
967;BME280;56108;48.730;9.304;2023-12-07T04:25:50;97825.72;;;-0.64;100.00
967;BME280;56108;48.730;9.304;2023-12-07T04:28:02;97812.63;;;-0.62;100.00
967;BME280;56108;48.730;9.304;2023-12-07T04:30:11;97814.34;;;-0.61;100.00
967;BME280;56108;48.730;9.304;2023-12-07T04:32:20;97821.34;;;-0.63;100.00
967;BME280;56108;48.730;9.304;2023-12-07T04:34:26;97810.19;;;-0.70;100.00
967;BME280;56108;48.730;9.304;2023-12-07T04:36:37;97803.28;;;-0.74;100.00
967;BME280;56108;48.730;9.304;2023-12-07T04:38:45;97807.78;;;-0.81;100.00
967;BME280;56108;48.730;9.304;2023-12-07T04:40:54;97810.25;;;-0.74;100.00
967;BME280;56108;48.730;9.304;2023-12-07T04:43:05;97799.72;;;-0.70;100.00
967;BME280;56108;48.730;9.304;2023-12-07T04:45:13;97795.97;;;-0.58;100.00
967;BME280;56108;48.730;9.304;2023-12-07T04:47:21;97801.28;;;-0.63;100.00
967;BME280;56108;48.730;9.304;2023-12-07T04:49:28;97797.00;;;-0.65;100.00
967;BME280;56108;48.730;9.304;2023-12-07T04:51:37;97789.34;;;-0.73;100.00
967;BME280;56108;48.730;9.304;2023-12-07T04:53:42;97796.28;;;-0.72;100.00
967;BME280;56108;48.730;9.304;2023-12-07T04:55:51;97783.19;;;-0.70;100.00
967;BME280;56108;48.730;9.304;2023-12-07T04:57:59;97783.25;;;-0.73;100.00
967;BME280;56108;48.730;9.304;2023-12-07T05:00:11;97781.00;;;-0.50;100.00
967;BME280;56108;48.730;9.304;2023-12-07T05:02:19;97776.56;;;-0.48;100.00
967;BME280;56108;48.730;9.304;2023-12-07T05:04:28;97772.09;;;-0.43;100.00
967;BME280;56108;48.730;9.304;2023-12-07T05:06:38;97774.56;;;-0.37;100.00
967;BME280;56108;48.730;9.304;2023-12-07T05:08:47;97774.66;;;-0.40;100.00
967;BME280;56108;48.730;9.304;2023-12-07T05:10:55;97773.56;;;-0.30;100.00
967;BME280;56108;48.730;9.304;2023-12-07T05:13:03;97771.09;;;-0.36;100.00
967;BME280;56108;48.730;9.304;2023-12-07T05:15:14;97777.38;;;-0.44;100.00
967;BME280;56108;48.730;9.304;2023-12-07T05:17:22;97774.47;;;-0.31;100.00
967;BME280;56108;48.730;9.304;2023-12-07T05:19:31;97770.28;;;-0.39;100.00
967;BME280;56108;48.730;9.304;2023-12-07T05:21:39;97793.16;;;-0.49;100.00
967;BME280;56108;48.730;9.304;2023-12-07T05:23:47;97786.03;;;-0.42;100.00
967;BME280;56108;48.730;9.304;2023-12-07T05:25:56;97792.41;;;-0.54;100.00
967;BME280;56108;48.730;9.304;2023-12-07T05:28:05;97787.22;;;-0.56;100.00
967;BME280;56108;48.730;9.304;2023-12-07T05:30:16;97787.47;;;-0.66;100.00
967;BME280;56108;48.730;9.304;2023-12-07T05:32:25;97798.16;;;-0.77;100.00
967;BME280;56108;48.730;9.304;2023-12-07T05:34:33;97795.66;;;-0.83;100.00
967;BME280;56108;48.730;9.304;2023-12-07T05:36:42;97798.47;;;-0.92;100.00
967;BME280;56108;48.730;9.304;2023-12-07T05:38:53;97786.66;;;-0.70;100.00
967;BME280;56108;48.730;9.304;2023-12-07T05:41:02;97801.56;;;-0.75;100.00
967;BME280;56108;48.730;9.304;2023-12-07T05:43:08;97792.84;;;-0.74;100.00
967;BME280;56108;48.730;9.304;2023-12-07T05:45:19;97798.97;;;-0.75;100.00
967;BME280;56108;48.730;9.304;2023-12-07T05:47:27;97796.53;;;-0.84;100.00
967;BME280;56108;48.730;9.304;2023-12-07T05:49:36;97802.78;;;-0.91;100.00
967;BME280;56108;48.730;9.304;2023-12-07T05:51:44;97795.88;;;-0.94;100.00
967;BME280;56108;48.730;9.304;2023-12-07T05:53:54;97794.41;;;-1.07;100.00
967;BME280;56108;48.730;9.304;2023-12-07T05:56:02;97789.13;;;-1.06;100.00
967;BME280;56108;48.730;9.304;2023-12-07T05:58:11;97790.03;;;-1.07;100.00
967;BME280;56108;48.730;9.304;2023-12-07T06:00:22;97772.91;;;-1.20;100.00
967;BME280;56108;48.730;9.304;2023-12-07T06:02:32;97774.69;;;-1.22;100.00
967;BME280;56108;48.730;9.304;2023-12-07T06:04:41;97773.84;;;-1.24;100.00
967;BME280;56108;48.730;9.304;2023-12-07T06:06:49;97783.44;;;-1.26;100.00
967;BME280;56108;48.730;9.304;2023-12-07T06:08:58;97776.56;;;-1.28;100.00
967;BME280;56108;48.730;9.304;2023-12-07T06:11:06;97779.22;;;-1.32;100.00
967;BME280;56108;48.730;9.304;2023-12-07T06:13:12;97781.22;;;-1.44;100.00
967;BME280;56108;48.730;9.304;2023-12-07T06:15:24;97775.06;;;-1.42;100.00
967;BME280;56108;48.730;9.304;2023-12-07T06:17:33;97773.34;;;-1.43;100.00
967;BME280;56108;48.730;9.304;2023-12-07T06:19:42;97772.59;;;-1.49;100.00
967;BME280;56108;48.730;9.304;2023-12-07T06:21:50;97771.78;;;-1.53;100.00
967;BME280;56108;48.730;9.304;2023-12-07T06:23:59;97765.72;;;-1.53;100.00
967;BME280;56108;48.730;9.304;2023-12-07T06:26:07;97761.28;;;-1.48;100.00
967;BME280;56108;48.730;9.304;2023-12-07T06:28:16;97762.09;;;-1.46;100.00
967;BME280;56108;48.730;9.304;2023-12-07T06:30:27;97758.66;;;-1.48;100.00
967;BME280;56108;48.730;9.304;2023-12-07T06:32:36;97755.06;;;-1.43;100.00
967;BME280;56108;48.730;9.304;2023-12-07T06:34:45;97753.59;;;-1.56;100.00
967;BME280;56108;48.730;9.304;2023-12-07T06:36:53;97755.34;;;-1.58;100.00
967;BME280;56108;48.730;9.304;2023-12-07T06:39:01;97757.75;;;-1.47;100.00
967;BME280;56108;48.730;9.304;2023-12-07T06:41:11;97759.59;;;-1.52;100.00
967;BME280;56108;48.730;9.304;2023-12-07T06:43:16;97755.22;;;-1.50;100.00
967;BME280;56108;48.730;9.304;2023-12-07T06:45:28;97761.44;;;-1.56;100.00
967;BME280;56108;48.730;9.304;2023-12-07T06:47:38;97753.56;;;-1.54;100.00
967;BME280;56108;48.730;9.304;2023-12-07T06:49:47;97753.69;;;-1.62;100.00
967;BME280;56108;48.730;9.304;2023-12-07T06:51:57;97759.03;;;-1.67;100.00
967;BME280;56108;48.730;9.304;2023-12-07T06:54:06;97762.56;;;-1.72;100.00
967;BME280;56108;48.730;9.304;2023-12-07T06:56:14;97758.31;;;-1.76;100.00
967;BME280;56108;48.730;9.304;2023-12-07T06:58:23;97756.59;;;-1.77;100.00
967;BME280;56108;48.730;9.304;2023-12-07T07:00:34;97762.56;;;-1.71;100.00
967;BME280;56108;48.730;9.304;2023-12-07T07:02:42;97754.78;;;-1.74;100.00
967;BME280;56108;48.730;9.304;2023-12-07T07:04:51;97753.00;;;-1.70;100.00
967;BME280;56108;48.730;9.304;2023-12-07T07:06:59;97754.75;;;-1.71;100.00
967;BME280;56108;48.730;9.304;2023-12-07T07:09:08;97747.88;;;-1.78;100.00
967;BME280;56108;48.730;9.304;2023-12-07T07:11:17;97748.63;;;-1.70;100.00
967;BME280;56108;48.730;9.304;2023-12-07T07:13:25;97753.03;;;-1.72;100.00
967;BME280;56108;48.730;9.304;2023-12-07T07:15:37;97752.13;;;-1.72;100.00
967;BME280;56108;48.730;9.304;2023-12-07T07:17:45;97752.94;;;-1.69;100.00
967;BME280;56108;48.730;9.304;2023-12-07T07:19:51;97758.25;;;-1.73;100.00
967;BME280;56108;48.730;9.304;2023-12-07T07:22:00;97755.44;;;-1.61;100.00
967;BME280;56108;48.730;9.304;2023-12-07T07:24:10;97750.34;;;-1.69;100.00
967;BME280;56108;48.730;9.304;2023-12-07T07:26:18;97746.88;;;-1.69;100.00
967;BME280;56108;48.730;9.304;2023-12-07T07:28:26;97747.69;;;-1.67;100.00
967;BME280;56108;48.730;9.304;2023-12-07T07:30:37;97746.84;;;-1.66;100.00
967;BME280;56108;48.730;9.304;2023-12-07T07:32:46;97750.28;;;-1.66;100.00
967;BME280;56108;48.730;9.304;2023-12-07T07:34:55;97740.63;;;-1.62;100.00
967;BME280;56108;48.730;9.304;2023-12-07T07:37:05;97737.81;;;-1.50;100.00
967;BME280;56108;48.730;9.304;2023-12-07T07:39:14;97743.72;;;-1.40;100.00
967;BME280;56108;48.730;9.304;2023-12-07T07:41:22;97738.47;;;-1.39;100.00
967;BME280;56108;48.730;9.304;2023-12-07T07:43:31;97741.97;;;-1.41;100.00
967;BME280;56108;48.730;9.304;2023-12-07T07:45:43;97742.06;;;-1.44;100.00
967;BME280;56108;48.730;9.304;2023-12-07T07:47:51;97745.41;;;-1.38;100.00
967;BME280;56108;48.730;9.304;2023-12-07T07:50:00;97752.16;;;-1.27;100.00
967;BME280;56108;48.730;9.304;2023-12-07T07:52:10;97751.25;;;-1.26;100.00
967;BME280;56108;48.730;9.304;2023-12-07T07:54:21;97751.75;;;-1.08;100.00
967;BME280;56108;48.730;9.304;2023-12-07T07:56:29;97762.25;;;-1.11;100.00
967;BME280;56108;48.730;9.304;2023-12-07T07:58:38;97767.75;;;-1.23;100.00
967;BME280;56108;48.730;9.304;2023-12-07T08:00:49;97773.81;;;-1.22;100.00
967;BME280;56108;48.730;9.304;2023-12-07T08:02:58;97772.28;;;-1.33;100.00
967;BME280;56108;48.730;9.304;2023-12-07T08:05:06;97779.09;;;-1.25;100.00
967;BME280;56108;48.730;9.304;2023-12-07T08:07:16;97769.78;;;-1.39;100.00
967;BME280;56108;48.730;9.304;2023-12-07T08:09:24;97773.25;;;-1.38;100.00
967;BME280;56108;48.730;9.304;2023-12-07T08:11:33;97774.94;;;-1.34;100.00
967;BME280;56108;48.730;9.304;2023-12-07T08:13:41;97777.38;;;-1.26;100.00
967;BME280;56108;48.730;9.304;2023-12-07T08:15:52;97774.75;;;-1.25;100.00
967;BME280;56108;48.730;9.304;2023-12-07T08:18:03;97779.84;;;-1.19;100.00
967;BME280;56108;48.730;9.304;2023-12-07T08:20:11;97780.66;;;-1.17;100.00
967;BME280;56108;48.730;9.304;2023-12-07T08:22:20;97782.47;;;-1.19;100.00
967;BME280;56108;48.730;9.304;2023-12-07T08:24:26;97780.75;;;-1.20;100.00
967;BME280;56108;48.730;9.304;2023-12-07T08:26:34;97783.22;;;-1.15;100.00
967;BME280;56108;48.730;9.304;2023-12-07T08:28:43;97781.56;;;-1.18;100.00
967;BME280;56108;48.730;9.304;2023-12-07T08:30:54;97787.69;;;-1.19;100.00
967;BME280;56108;48.730;9.304;2023-12-07T08:33:03;97784.97;;;-1.14;100.00
967;BME280;56108;48.730;9.304;2023-12-07T08:35:11;97785.75;;;-1.11;100.00
967;BME280;56108;48.730;9.304;2023-12-07T08:37:20;97787.38;;;-1.03;100.00
967;BME280;56108;48.730;9.304;2023-12-07T08:39:28;97794.31;;;-1.02;100.00
967;BME280;56108;48.730;9.304;2023-12-07T08:41:37;97793.19;;;-0.91;100.00
967;BME280;56108;48.730;9.304;2023-12-07T08:43:46;97797.44;;;-0.85;100.00
967;BME280;56108;48.730;9.304;2023-12-07T08:45:57;97802.53;;;-0.79;100.00
967;BME280;56108;48.730;9.304;2023-12-07T08:48:06;97807.69;;;-0.76;100.00
967;BME280;56108;48.730;9.304;2023-12-07T08:50:14;97810.22;;;-0.71;100.00
967;BME280;56108;48.730;9.304;2023-12-07T08:52:23;97823.50;;;-0.82;100.00
967;BME280;56108;48.730;9.304;2023-12-07T08:54:46;97822.47;;;-0.75;100.00
967;BME280;56108;48.730;9.304;2023-12-07T08:56:55;97833.69;;;-0.70;100.00
967;BME280;56108;48.730;9.304;2023-12-07T08:59:03;97825.94;;;-0.74;100.00
967;BME280;56108;48.730;9.304;2023-12-07T09:01:14;97831.13;;;-0.71;100.00
967;BME280;56108;48.730;9.304;2023-12-07T09:03:34;97835.31;;;-0.64;100.00
967;BME280;56108;48.730;9.304;2023-12-07T09:05:42;97831.00;;;-0.27;100.00
967;BME280;56108;48.730;9.304;2023-12-07T09:07:51;97828.66;;;0.70;100.00
967;BME280;56108;48.730;9.304;2023-12-07T09:09:57;97836.31;;;2.52;100.00
967;BME280;56108;48.730;9.304;2023-12-07T09:12:06;97906.41;;;4.43;100.00
967;BME280;56108;48.730;9.304;2023-12-07T09:14:15;97984.22;;;6.01;100.00
967;BME280;56108;48.730;9.304;2023-12-07T09:16:26;97989.88;;;6.31;100.00
967;BME280;56108;48.730;9.304;2023-12-07T09:18:34;97993.16;;;6.74;100.00
967;BME280;56108;48.730;9.304;2023-12-07T09:20:43;97995.59;;;8.17;91.10
967;BME280;56108;48.730;9.304;2023-12-07T09:22:51;98019.69;;;9.56;83.85
967;BME280;56108;48.730;9.304;2023-12-07T09:25:02;98059.56;;;10.31;70.37
967;BME280;56108;48.730;9.304;2023-12-07T09:27:10;98067.66;;;9.69;65.10
967;BME280;56108;48.730;9.304;2023-12-07T09:29:20;98045.06;;;7.31;71.28
967;BME280;56108;48.730;9.304;2023-12-07T09:31:31;98019.47;;;7.13;77.40
967;BME280;56108;48.730;9.304;2023-12-07T09:33:39;98015.41;;;7.06;77.22
967;BME280;56108;48.730;9.304;2023-12-07T09:35:47;98009.88;;;6.18;79.73
967;BME280;56108;48.730;9.304;2023-12-07T09:37:57;97980.75;;;4.75;90.43
967;BME280;56108;48.730;9.304;2023-12-07T09:40:06;97978.78;;;4.11;100.00
967;BME280;56108;48.730;9.304;2023-12-07T09:42:12;97979.38;;;4.87;100.00
967;BME280;56108;48.730;9.304;2023-12-07T09:44:26;97975.81;;;3.74;100.00
967;BME280;56108;48.730;9.304;2023-12-07T09:46:37;97968.00;;;3.71;100.00
967;BME280;56108;48.730;9.304;2023-12-07T09:48:49;97969.88;;;4.39;100.00
967;BME280;56108;48.730;9.304;2023-12-07T09:50:59;97977.16;;;4.98;97.79
967;BME280;56108;48.730;9.304;2023-12-07T09:53:08;97975.69;;;5.13;96.83
967;BME280;56108;48.730;9.304;2023-12-07T09:55:17;97975.81;;;5.30;92.30
967;BME280;56108;48.730;9.304;2023-12-07T09:57:27;97965.63;;;4.79;97.47
967;BME280;56108;48.730;9.304;2023-12-07T09:59:36;97948.78;;;3.69;100.00
967;BME280;56108;48.730;9.304;2023-12-07T10:01:47;97944.25;;;2.97;100.00
967;BME280;56108;48.730;9.304;2023-12-07T10:04:18;97946.63;;;2.24;100.00
967;BME280;56108;48.730;9.304;2023-12-07T10:06:42;97946.34;;;2.03;100.00
967;BME280;56108;48.730;9.304;2023-12-07T10:09:04;97939.72;;;1.92;100.00
967;BME280;56108;48.730;9.304;2023-12-07T10:11:24;97942.19;;;1.67;100.00
967;BME280;56108;48.730;9.304;2023-12-07T10:13:33;97935.09;;;1.39;100.00
967;BME280;56108;48.730;9.304;2023-12-07T10:15:43;97924.84;;;1.30;100.00
967;BME280;56108;48.730;9.304;2023-12-07T10:17:53;97924.16;;;1.23;100.00
967;BME280;56108;48.730;9.304;2023-12-07T10:20:07;97924.22;;;1.22;100.00
967;BME280;56108;48.730;9.304;2023-12-07T10:22:17;97926.94;;;1.17;100.00
967;BME280;56108;48.730;9.304;2023-12-07T10:24:26;97908.25;;;0.97;100.00
967;BME280;56108;48.730;9.304;2023-12-07T10:26:36;97909.00;;;1.02;100.00
967;BME280;56108;48.730;9.304;2023-12-07T10:28:49;97913.06;;;1.14;100.00
967;BME280;56108;48.730;9.304;2023-12-07T10:31:00;97907.00;;;1.12;100.00
967;BME280;56108;48.730;9.304;2023-12-07T10:33:11;97903.81;;;1.00;100.00
967;BME280;56108;48.730;9.304;2023-12-07T10:35:19;97897.59;;;1.04;100.00
967;BME280;56108;48.730;9.304;2023-12-07T10:37:27;97898.31;;;1.10;100.00
967;BME280;56108;48.730;9.304;2023-12-07T10:39:36;97883.75;;;0.99;100.00
967;BME280;56108;48.730;9.304;2023-12-07T10:41:45;97881.09;;;1.01;100.00
967;BME280;56108;48.730;9.304;2023-12-07T10:43:59;97889.56;;;1.11;100.00
967;BME280;56108;48.730;9.304;2023-12-07T10:46:08;97891.09;;;1.18;100.00
967;BME280;56108;48.730;9.304;2023-12-07T10:48:21;97891.00;;;1.22;100.00
967;BME280;56108;48.730;9.304;2023-12-07T10:50:31;97890.03;;;1.25;100.00
967;BME280;56108;48.730;9.304;2023-12-07T10:52:45;97887.28;;;1.29;100.00
967;BME280;56108;48.730;9.304;2023-12-07T10:55:00;97886.56;;;1.24;100.00
967;BME280;56108;48.730;9.304;2023-12-07T10:57:08;97888.91;;;1.34;100.00
967;BME280;56108;48.730;9.304;2023-12-07T10:59:19;97890.69;;;1.33;100.00
967;BME280;56108;48.730;9.304;2023-12-07T11:01:37;97882.88;;;1.32;100.00
967;BME280;56108;48.730;9.304;2023-12-07T11:03:49;97888.75;;;1.40;100.00
967;BME280;56108;48.730;9.304;2023-12-07T11:05:58;97891.38;;;1.40;100.00
967;BME280;56108;48.730;9.304;2023-12-07T11:08:06;97895.97;;;1.63;100.00
967;BME280;56108;48.730;9.304;2023-12-07T11:10:21;97883.84;;;1.59;100.00
967;BME280;56108;48.730;9.304;2023-12-07T11:12:36;97869.16;;;1.53;100.00
967;BME280;56108;48.730;9.304;2023-12-07T11:14:51;97859.66;;;1.49;100.00
967;BME280;56108;48.730;9.304;2023-12-07T11:17:00;97855.19;;;1.51;100.00
967;BME280;56108;48.730;9.304;2023-12-07T11:21:52;97843.66;;;1.56;100.00
967;BME280;56108;48.730;9.304;2023-12-07T11:24:01;97841.09;;;1.55;100.00
967;BME280;56108;48.730;9.304;2023-12-07T11:26:09;97839.19;;;1.60;100.00
967;BME280;56108;48.730;9.304;2023-12-07T11:28:18;97826.72;;;1.68;100.00
967;BME280;56108;48.730;9.304;2023-12-07T11:30:27;97833.03;;;1.63;100.00
967;BME280;56108;48.730;9.304;2023-12-07T11:32:33;97830.34;;;1.64;100.00
967;BME280;56108;48.730;9.304;2023-12-07T11:36:54;97817.63;;;1.80;100.00
967;BME280;56108;48.730;9.304;2023-12-07T11:39:16;97814.00;;;1.84;100.00
967;BME280;56108;48.730;9.304;2023-12-07T11:41:34;97816.56;;;1.86;100.00
967;BME280;56108;48.730;9.304;2023-12-07T11:43:44;97819.03;;;1.90;100.00
967;BME280;56108;48.730;9.304;2023-12-07T11:45:51;97806.72;;;1.92;100.00
967;BME280;56108;48.730;9.304;2023-12-07T11:48:08;97803.75;;;2.03;100.00